createdAt,value
2022-10-18T00:00:01.103Z,15.06
2022-10-18T00:15:08.902Z,15.19
2022-10-18T00:30:14.596Z,15.25
2022-10-18T00:45:22.574Z,15.31
2022-10-18T01:00:28.183Z,15.19
2022-10-18T01:15:39.387Z,15.31
2022-10-18T01:30:51.822Z,15.38
2022-10-18T01:45:58.155Z,15.19
2022-10-18T02:01:08.771Z,15.13
2022-10-18T02:16:20.822Z,15.13
2022-10-18T02:31:29.932Z,14.94
2022-10-18T02:46:36.176Z,14.69
2022-10-18T03:01:41.746Z,14.63
2022-10-18T03:16:47.371Z,14.44
2022-10-18T03:31:52.906Z,14.38
2022-10-18T03:46:58.523Z,14.25
2022-10-18T04:02:04.168Z,14.00
2022-10-18T04:17:09.911Z,14.00
2022-10-18T04:32:15.371Z,14.06
2022-10-18T04:47:21.075Z,14.25
2022-10-18T05:02:26.618Z,14.31
2022-10-18T05:17:32.170Z,14.38
2022-10-18T05:32:37.835Z,14.50
2022-10-18T05:47:43.367Z,14.63
2022-10-18T06:02:49.336Z,14.63
2022-10-18T06:17:55.037Z,14.69
2022-10-18T06:33:02.997Z,14.56
2022-10-18T06:48:09.492Z,14.56
2022-10-18T07:03:15.291Z,15.19
2022-10-18T07:18:22.856Z,15.13
2022-10-18T07:33:31.296Z,15.38
2022-10-18T07:48:36.833Z,15.56
2022-10-18T08:03:43.820Z,15.69
2022-10-18T08:18:49.665Z,15.56
2022-10-18T08:33:57.940Z,16.06
2022-10-18T08:49:05.403Z,15.94
2022-10-18T09:04:25.628Z,16.19
2022-10-18T09:19:44.201Z,16.63
2022-10-18T09:34:53.540Z,16.69
2022-10-18T09:50:03.029Z,16.56
2022-10-18T10:05:14.233Z,16.69
2022-10-18T10:20:24.415Z,16.94
2022-10-18T10:51:06.185Z,17.06
2022-10-18T11:06:34.031Z,17.19
2022-10-18T11:21:41.029Z,17.38
2022-10-18T11:37:15.882Z,17.50
2022-10-18T11:52:30.055Z,17.56
2022-10-18T12:07:39.515Z,17.69
2022-10-18T12:22:51.519Z,17.69
2022-10-18T12:38:16.430Z,17.81
2022-10-18T12:53:27.959Z,17.81
2022-10-18T13:08:43.025Z,17.75
2022-10-18T13:24:07.658Z,17.94
2022-10-18T13:39:21.723Z,17.88
2022-10-18T13:54:47.213Z,17.75
2022-10-18T14:09:56.852Z,17.63
2022-10-18T14:25:03.863Z,17.50
2022-10-18T14:40:29.301Z,17.38
2022-10-18T14:55:35.937Z,17.31
2022-10-18T15:10:42.341Z,17.13
2022-10-18T15:25:48.176Z,17.13
2022-10-18T15:40:54.417Z,17.00
2022-10-18T15:56:01.292Z,16.81
2022-10-18T16:11:07.397Z,16.63
2022-10-18T16:26:13.659Z,16.44
2022-10-18T16:41:19.909Z,16.19
2022-10-18T16:56:28.450Z,16.06
2022-10-18T17:11:34.125Z,16.00
2022-10-18T17:26:40.737Z,15.81
2022-10-18T17:41:46.623Z,15.63
2022-10-18T17:56:54.493Z,15.56
2022-10-18T18:12:00.551Z,15.50
2022-10-18T18:27:06.536Z,15.31
2022-10-18T18:42:12.433Z,15.19
2022-10-18T18:57:19.026Z,14.94
2022-10-18T19:12:25.072Z,14.88
2022-10-18T19:27:31.043Z,14.88
2022-10-18T19:42:37.982Z,15.00
2022-10-18T19:57:44.488Z,14.69
2022-10-18T20:12:50.361Z,14.56
2022-10-18T20:27:55.956Z,14.56
2022-10-18T20:43:03.786Z,14.44
2022-10-18T20:58:09.939Z,14.38
2022-10-18T21:13:15.675Z,14.19
2022-10-18T21:28:21.444Z,14.19
2022-10-18T21:43:27.351Z,14.06
2022-10-18T21:58:33.261Z,13.94
2022-10-18T22:13:42.892Z,13.81
2022-10-18T22:28:49.846Z,13.75
2022-10-18T22:43:57.400Z,13.63
2022-10-18T22:59:05.476Z,13.63
2022-10-18T23:14:11.974Z,13.50
2022-10-18T23:29:17.498Z,13.44
2022-10-18T23:44:23.092Z,13.31
2022-10-18T23:59:28.978Z,13.13
